This is the latest recevied weather packets stored in our database for station/object K4MGY-13. If no packets are shown the sender has not sent any weather packets the latest 1 day(s).
| Time | Temp. | Humidity | Pressure | Rain* | Wind** | Luminosity | Snow |
|---|---|---|---|---|---|---|---|
| 1778000048 | 21.11° C | 58% | 1011.9 hPa | 0 mm | 0.45 m/s, 204° | - | - |
| 1777999419 | 21.11° C | 58% | 1011.9 hPa | 0 mm | 0.45 m/s, 183° | - | - |
| 1777999088 | 21.11° C | 58% | 1012.2 hPa | 0 mm | 0.45 m/s, 194° | - | - |
| 1777998789 | 21.11° C | 57% | 1012.2 hPa | 0 mm | 1.34 m/s, 223° | - | - |
| 1777998458 | 21.11° C | 57% | 1012.5 hPa | 0 mm | 1.34 m/s, 239° | - | - |
| 1777998129 | 21.11° C | 57% | 1012.5 hPa | 0 mm | 0.89 m/s, 210° | - | - |
| 1777997828 | 21.11° C | 57% | 1012.2 hPa | 0 mm | 0.89 m/s, 207° | - | - |
| 1777997498 | 21.11° C | 57% | 1012.5 hPa | 0 mm | 0.45 m/s, 185° | - | - |
| 1777997169 | 21.11° C | 57% | 1012.5 hPa | 0 mm | 1.34 m/s, 206° | - | - |
| 1777996868 | 21.11° C | 57% | 1012.5 hPa | 0 mm | 1.34 m/s, 205° | - | - |
| 1777996540 | 21.11° C | 58% | 1012.5 hPa | 0 mm | 0.89 m/s, 216° | - | - |
| 1777996208 | 20.56° C | 58% | 1012.9 hPa | 0 mm | 0.89 m/s, 221° | - | - |
| 1777995878 | 20.56° C | 57% | 1012.5 hPa | 0 mm | 1.34 m/s, 201° | - | - |
| 1777995550 | 20.56° C | 58% | 1012.5 hPa | 0 mm | 1.34 m/s, 243° | - | - |
| 1777995221 | 20.56° C | 57% | 1012.5 hPa | 0 mm | 0.89 m/s, 224° | - | - |
| 1777994888 | 20.56° C | 58% | 1012.2 hPa | 0 mm | 1.34 m/s, 210° | - | - |
| 1777994558 | 20.56° C | 58% | 1012.5 hPa | 0 mm | 1.34 m/s, 213° | - | - |
| 1777994258 | 20.56° C | 58% | 1012.2 hPa | 0 mm | 1.34 m/s, 202° | - | - |
| 1777993959 | 20.56° C | 58% | 1012.5 hPa | 0 mm | 2.24 m/s, 252° | - | - |
| 1777993628 | 20.56° C | 59% | 1012.2 hPa | 0 mm | 0.89 m/s, 213° | - | - |
| 1777992668 | 19.44° C | 61% | 1012.5 hPa | 0 mm | 2.24 m/s, 226° | - | - |
| 1777992339 | 19.44° C | 60% | 1012.2 hPa | 0 mm | 0.89 m/s, 209° | - | - |
| 1777992038 | 19.44° C | 61% | 1012.2 hPa | 0 mm | 1.34 m/s, 221° | - | - |
| 1777991710 | 19.44° C | 62% | 1011.9 hPa | 0 mm | 0.45 m/s, 184° | - | - |
| 1777991409 | 18.89° C | 63% | 1011.9 hPa | 0 mm | 0.89 m/s, 232° | - | - |
* Rain latest hour (hover to see other rain measurements)
** Current wind speed in m/s (hover to see current wind gust speed)